sensor_id;sensor_type;location;lat;lon;timestamp;P1;durP1;ratioP1;P2;durP2;ratioP2
18407;SDS011;9330;52.210;21.174;2023-03-01T00:00:13;58.90;;;36.03;;
18407;SDS011;9330;52.210;21.174;2023-03-01T00:02:41;61.73;;;36.13;;
18407;SDS011;9330;52.210;21.174;2023-03-01T00:05:08;62.87;;;36.17;;
18407;SDS011;9330;52.210;21.174;2023-03-01T00:07:34;59.35;;;36.05;;
18407;SDS011;9330;52.210;21.174;2023-03-01T00:10:01;66.18;;;38.33;;
18407;SDS011;9330;52.210;21.174;2023-03-01T00:12:28;68.60;;;37.30;;
18407;SDS011;9330;52.210;21.174;2023-03-01T00:14:58;67.72;;;37.05;;
18407;SDS011;9330;52.210;21.174;2023-03-01T00:17:25;63.22;;;37.35;;
18407;SDS011;9330;52.210;21.174;2023-03-01T00:19:53;67.37;;;37.70;;
18407;SDS011;9330;52.210;21.174;2023-03-01T00:22:20;66.33;;;39.30;;
18407;SDS011;9330;52.210;21.174;2023-03-01T00:24:48;63.00;;;37.63;;
18407;SDS011;9330;52.210;21.174;2023-03-01T00:27:15;70.57;;;39.37;;
18407;SDS011;9330;52.210;21.174;2023-03-01T00:29:42;70.00;;;41.03;;
18407;SDS011;9330;52.210;21.174;2023-03-01T00:32:10;68.40;;;40.03;;
18407;SDS011;9330;52.210;21.174;2023-03-01T00:34:37;65.73;;;38.80;;
18407;SDS011;9330;52.210;21.174;2023-03-01T00:37:04;75.47;;;41.33;;
18407;SDS011;9330;52.210;21.174;2023-03-01T00:39:31;69.97;;;40.47;;
18407;SDS011;9330;52.210;21.174;2023-03-01T00:41:58;68.30;;;38.90;;
18407;SDS011;9330;52.210;21.174;2023-03-01T00:44:25;69.75;;;40.65;;
18407;SDS011;9330;52.210;21.174;2023-03-01T00:46:53;68.43;;;38.50;;
18407;SDS011;9330;52.210;21.174;2023-03-01T00:49:21;72.80;;;41.50;;
18407;SDS011;9330;52.210;21.174;2023-03-01T00:51:52;72.90;;;41.90;;
18407;SDS011;9330;52.210;21.174;2023-03-01T00:54:19;68.00;;;39.47;;
18407;SDS011;9330;52.210;21.174;2023-03-01T00:56:46;71.93;;;40.00;;
18407;SDS011;9330;52.210;21.174;2023-03-01T00:59:13;67.00;;;39.07;;
18407;SDS011;9330;52.210;21.174;2023-03-01T01:01:40;71.57;;;40.30;;
18407;SDS011;9330;52.210;21.174;2023-03-01T01:04:08;68.45;;;39.78;;
18407;SDS011;9330;52.210;21.174;2023-03-01T01:06:38;73.13;;;43.00;;
18407;SDS011;9330;52.210;21.174;2023-03-01T01:09:07;67.95;;;39.72;;
18407;SDS011;9330;52.210;21.174;2023-03-01T01:11:42;68.20;;;39.80;;
18407;SDS011;9330;52.210;21.174;2023-03-01T01:14:09;67.82;;;40.30;;
18407;SDS011;9330;52.210;21.174;2023-03-01T01:16:36;70.87;;;39.97;;
18407;SDS011;9330;52.210;21.174;2023-03-01T01:19:03;68.60;;;38.60;;
18407;SDS011;9330;52.210;21.174;2023-03-01T01:21:30;66.77;;;37.70;;
18407;SDS011;9330;52.210;21.174;2023-03-01T01:23:59;66.37;;;38.13;;
18407;SDS011;9330;52.210;21.174;2023-03-01T01:26:26;68.23;;;38.73;;
18407;SDS011;9330;52.210;21.174;2023-03-01T01:28:54;61.47;;;37.07;;
18407;SDS011;9330;52.210;21.174;2023-03-01T01:31:22;69.10;;;38.83;;
18407;SDS011;9330;52.210;21.174;2023-03-01T01:33:49;71.63;;;40.10;;
18407;SDS011;9330;52.210;21.174;2023-03-01T01:36:16;71.10;;;40.07;;
18407;SDS011;9330;52.210;21.174;2023-03-01T01:38:43;69.33;;;38.93;;
18407;SDS011;9330;52.210;21.174;2023-03-01T01:41:12;67.63;;;38.83;;
18407;SDS011;9330;52.210;21.174;2023-03-01T01:43:41;70.20;;;38.80;;
18407;SDS011;9330;52.210;21.174;2023-03-01T01:46:12;64.50;;;38.70;;
18407;SDS011;9330;52.210;21.174;2023-03-01T01:48:45;67.83;;;39.87;;
18407;SDS011;9330;52.210;21.174;2023-03-01T01:51:17;66.20;;;37.53;;
18407;SDS011;9330;52.210;21.174;2023-03-01T01:53:51;66.67;;;38.33;;
18407;SDS011;9330;52.210;21.174;2023-03-01T01:59:46;67.97;;;39.13;;
18407;SDS011;9330;52.210;21.174;2023-03-01T02:02:17;68.80;;;38.83;;
18407;SDS011;9330;52.210;21.174;2023-03-01T02:04:44;65.00;;;37.83;;
18407;SDS011;9330;52.210;21.174;2023-03-01T02:07:15;67.77;;;38.10;;
18407;SDS011;9330;52.210;21.174;2023-03-01T02:09:45;66.00;;;40.00;;
18407;SDS011;9330;52.210;21.174;2023-03-01T02:12:14;66.47;;;38.10;;
18407;SDS011;9330;52.210;21.174;2023-03-01T02:14:44;66.17;;;38.53;;
18407;SDS011;9330;52.210;21.174;2023-03-01T02:17:11;63.53;;;37.40;;
18407;SDS011;9330;52.210;21.174;2023-03-01T02:19:44;68.10;;;40.70;;
18407;SDS011;9330;52.210;21.174;2023-03-01T02:22:22;66.77;;;40.83;;
18407;SDS011;9330;52.210;21.174;2023-03-01T02:24:54;65.13;;;38.27;;
18407;SDS011;9330;52.210;21.174;2023-03-01T02:27:33;66.70;;;38.77;;
18407;SDS011;9330;52.210;21.174;2023-03-01T02:30:06;71.93;;;39.93;;
18407;SDS011;9330;52.210;21.174;2023-03-01T02:32:37;73.22;;;40.33;;
18407;SDS011;9330;52.210;21.174;2023-03-01T02:35:06;63.60;;;37.63;;
18407;SDS011;9330;52.210;21.174;2023-03-01T02:37:35;65.43;;;38.63;;
18407;SDS011;9330;52.210;21.174;2023-03-01T02:40:03;67.87;;;39.13;;
18407;SDS011;9330;52.210;21.174;2023-03-01T02:42:36;70.00;;;41.23;;
18407;SDS011;9330;52.210;21.174;2023-03-01T02:45:11;75.75;;;40.83;;
18407;SDS011;9330;52.210;21.174;2023-03-01T02:47:38;70.30;;;40.17;;
18407;SDS011;9330;52.210;21.174;2023-03-01T02:50:10;70.13;;;42.07;;
18407;SDS011;9330;52.210;21.174;2023-03-01T02:52:43;67.33;;;41.60;;
18407;SDS011;9330;52.210;21.174;2023-03-01T02:55:13;74.67;;;42.77;;
18407;SDS011;9330;52.210;21.174;2023-03-01T02:57:43;71.50;;;41.00;;
18407;SDS011;9330;52.210;21.174;2023-03-01T03:00:13;78.60;;;43.30;;
18407;SDS011;9330;52.210;21.174;2023-03-01T03:02:45;71.47;;;42.40;;
18407;SDS011;9330;52.210;21.174;2023-03-01T03:05:16;70.90;;;41.00;;
18407;SDS011;9330;52.210;21.174;2023-03-01T03:07:45;67.97;;;39.47;;
18407;SDS011;9330;52.210;21.174;2023-03-01T03:10:14;76.03;;;41.80;;
18407;SDS011;9330;52.210;21.174;2023-03-01T03:12:44;71.90;;;41.77;;
18407;SDS011;9330;52.210;21.174;2023-03-01T03:15:16;71.37;;;41.70;;
18407;SDS011;9330;52.210;21.174;2023-03-01T03:17:45;70.00;;;40.07;;
18407;SDS011;9330;52.210;21.174;2023-03-01T03:20:16;64.17;;;38.80;;
18407;SDS011;9330;52.210;21.174;2023-03-01T03:22:45;70.77;;;39.20;;
18407;SDS011;9330;52.210;21.174;2023-03-01T03:25:13;73.80;;;40.83;;
18407;SDS011;9330;52.210;21.174;2023-03-01T03:27:41;63.83;;;38.43;;
18407;SDS011;9330;52.210;21.174;2023-03-01T03:30:10;66.50;;;39.70;;
18407;SDS011;9330;52.210;21.174;2023-03-01T03:32:40;69.63;;;39.80;;
18407;SDS011;9330;52.210;21.174;2023-03-01T03:35:17;62.13;;;37.50;;
18407;SDS011;9330;52.210;21.174;2023-03-01T03:37:44;64.17;;;37.07;;
18407;SDS011;9330;52.210;21.174;2023-03-01T03:40:31;66.23;;;37.50;;
18407;SDS011;9330;52.210;21.174;2023-03-01T03:42:59;68.67;;;38.83;;
18407;SDS011;9330;52.210;21.174;2023-03-01T03:45:26;61.47;;;36.73;;
18407;SDS011;9330;52.210;21.174;2023-03-01T03:47:54;61.03;;;35.30;;
18407;SDS011;9330;52.210;21.174;2023-03-01T03:50:21;66.15;;;37.10;;
18407;SDS011;9330;52.210;21.174;2023-03-01T03:52:48;61.78;;;35.80;;
18407;SDS011;9330;52.210;21.174;2023-03-01T03:55:15;62.33;;;35.80;;
18407;SDS011;9330;52.210;21.174;2023-03-01T03:57:44;61.50;;;36.50;;
18407;SDS011;9330;52.210;21.174;2023-03-01T04:00:16;64.13;;;37.20;;
18407;SDS011;9330;52.210;21.174;2023-03-01T04:02:45;63.30;;;36.73;;
18407;SDS011;9330;52.210;21.174;2023-03-01T04:05:15;61.93;;;36.13;;
18407;SDS011;9330;52.210;21.174;2023-03-01T04:07:43;62.10;;;36.27;;
18407;SDS011;9330;52.210;21.174;2023-03-01T04:10:11;61.80;;;35.47;;
18407;SDS011;9330;52.210;21.174;2023-03-01T04:12:41;59.50;;;34.40;;
18407;SDS011;9330;52.210;21.174;2023-03-01T04:15:09;57.43;;;34.97;;
18407;SDS011;9330;52.210;21.174;2023-03-01T04:17:38;61.83;;;34.93;;
18407;SDS011;9330;52.210;21.174;2023-03-01T04:20:07;58.80;;;34.63;;
18407;SDS011;9330;52.210;21.174;2023-03-01T04:22:37;61.78;;;36.15;;
18407;SDS011;9330;52.210;21.174;2023-03-01T04:25:05;59.90;;;33.70;;
18407;SDS011;9330;52.210;21.174;2023-03-01T04:27:33;57.27;;;33.73;;
18407;SDS011;9330;52.210;21.174;2023-03-01T04:30:00;56.83;;;33.60;;
18407;SDS011;9330;52.210;21.174;2023-03-01T04:32:27;60.37;;;35.13;;
18407;SDS011;9330;52.210;21.174;2023-03-01T04:34:54;59.33;;;33.23;;
18407;SDS011;9330;52.210;21.174;2023-03-01T04:37:22;55.10;;;33.13;;
18407;SDS011;9330;52.210;21.174;2023-03-01T04:39:51;56.65;;;33.03;;
18407;SDS011;9330;52.210;21.174;2023-03-01T04:42:18;58.23;;;34.10;;
18407;SDS011;9330;52.210;21.174;2023-03-01T04:44:45;58.65;;;34.28;;
18407;SDS011;9330;52.210;21.174;2023-03-01T04:47:12;59.47;;;33.87;;
18407;SDS011;9330;52.210;21.174;2023-03-01T04:49:39;54.17;;;32.60;;
18407;SDS011;9330;52.210;21.174;2023-03-01T04:52:06;55.73;;;32.57;;
18407;SDS011;9330;52.210;21.174;2023-03-01T04:54:34;55.77;;;32.27;;
18407;SDS011;9330;52.210;21.174;2023-03-01T04:57:03;54.07;;;32.60;;
18407;SDS011;9330;52.210;21.174;2023-03-01T04:59:30;53.87;;;32.67;;
18407;SDS011;9330;52.210;21.174;2023-03-01T05:01:58;56.97;;;34.03;;
18407;SDS011;9330;52.210;21.174;2023-03-01T05:04:26;59.60;;;33.47;;
18407;SDS011;9330;52.210;21.174;2023-03-01T05:06:54;56.50;;;33.13;;
18407;SDS011;9330;52.210;21.174;2023-03-01T05:09:23;61.93;;;33.50;;
18407;SDS011;9330;52.210;21.174;2023-03-01T05:11:50;58.57;;;32.33;;
18407;SDS011;9330;52.210;21.174;2023-03-01T05:14:18;59.43;;;32.73;;
18407;SDS011;9330;52.210;21.174;2023-03-01T05:16:45;58.37;;;34.27;;
18407;SDS011;9330;52.210;21.174;2023-03-01T05:19:12;58.30;;;34.05;;
18407;SDS011;9330;52.210;21.174;2023-03-01T05:21:40;55.85;;;32.90;;
18407;SDS011;9330;52.210;21.174;2023-03-01T05:24:21;62.23;;;33.53;;
18407;SDS011;9330;52.210;21.174;2023-03-01T05:26:48;59.17;;;33.80;;
18407;SDS011;9330;52.210;21.174;2023-03-01T05:29:16;56.97;;;34.10;;
18407;SDS011;9330;52.210;21.174;2023-03-01T05:31:50;56.57;;;33.57;;
18407;SDS011;9330;52.210;21.174;2023-03-01T05:34:18;55.60;;;33.87;;
18407;SDS011;9330;52.210;21.174;2023-03-01T05:36:47;58.67;;;32.27;;
18407;SDS011;9330;52.210;21.174;2023-03-01T05:39:16;54.85;;;31.88;;
18407;SDS011;9330;52.210;21.174;2023-03-01T05:41:43;54.23;;;32.17;;
18407;SDS011;9330;52.210;21.174;2023-03-01T05:44:10;56.00;;;31.85;;
18407;SDS011;9330;52.210;21.174;2023-03-01T05:46:39;54.37;;;31.57;;
18407;SDS011;9330;52.210;21.174;2023-03-01T05:49:06;51.97;;;30.97;;
18407;SDS011;9330;52.210;21.174;2023-03-01T05:51:33;51.23;;;31.23;;
18407;SDS011;9330;52.210;21.174;2023-03-01T05:54:00;56.40;;;32.50;;
18407;SDS011;9330;52.210;21.174;2023-03-01T05:56:27;57.53;;;32.92;;
18407;SDS011;9330;52.210;21.174;2023-03-01T05:58:54;55.40;;;33.10;;
18407;SDS011;9330;52.210;21.174;2023-03-01T06:01:21;59.40;;;33.53;;
18407;SDS011;9330;52.210;21.174;2023-03-01T06:03:49;60.23;;;33.27;;
18407;SDS011;9330;52.210;21.174;2023-03-01T06:06:15;57.53;;;33.47;;
18407;SDS011;9330;52.210;21.174;2023-03-01T06:08:42;56.97;;;33.10;;
18407;SDS011;9330;52.210;21.174;2023-03-01T06:11:09;59.67;;;33.43;;
18407;SDS011;9330;52.210;21.174;2023-03-01T06:13:36;60.90;;;34.10;;
18407;SDS011;9330;52.210;21.174;2023-03-01T06:16:04;57.47;;;34.23;;
18407;SDS011;9330;52.210;21.174;2023-03-01T06:18:31;60.10;;;34.40;;
18407;SDS011;9330;52.210;21.174;2023-03-01T06:21:00;57.45;;;35.17;;
18407;SDS011;9330;52.210;21.174;2023-03-01T06:23:27;56.80;;;34.42;;
18407;SDS011;9330;52.210;21.174;2023-03-01T06:25:54;64.68;;;34.72;;
18407;SDS011;9330;52.210;21.174;2023-03-01T06:28:21;57.23;;;34.27;;
18407;SDS011;9330;52.210;21.174;2023-03-01T06:30:49;59.08;;;35.25;;
18407;SDS011;9330;52.210;21.174;2023-03-01T06:33:16;57.27;;;33.90;;
18407;SDS011;9330;52.210;21.174;2023-03-01T06:35:45;56.80;;;33.95;;
18407;SDS011;9330;52.210;21.174;2023-03-01T06:38:13;59.22;;;34.72;;
18407;SDS011;9330;52.210;21.174;2023-03-01T06:40:42;58.80;;;33.90;;
18407;SDS011;9330;52.210;21.174;2023-03-01T06:43:09;55.58;;;33.47;;
18407;SDS011;9330;52.210;21.174;2023-03-01T06:45:36;56.88;;;34.58;;
18407;SDS011;9330;52.210;21.174;2023-03-01T06:48:03;57.92;;;34.30;;
18407;SDS011;9330;52.210;21.174;2023-03-01T06:50:31;60.53;;;34.00;;
18407;SDS011;9330;52.210;21.174;2023-03-01T06:52:58;52.85;;;32.97;;
18407;SDS011;9330;52.210;21.174;2023-03-01T06:55:27;60.10;;;34.58;;
18407;SDS011;9330;52.210;21.174;2023-03-01T06:57:54;54.95;;;32.38;;
18407;SDS011;9330;52.210;21.174;2023-03-01T07:00:22;52.45;;;31.75;;
18407;SDS011;9330;52.210;21.174;2023-03-01T07:02:50;52.75;;;30.73;;
18407;SDS011;9330;52.210;21.174;2023-03-01T07:05:17;55.78;;;31.90;;
18407;SDS011;9330;52.210;21.174;2023-03-01T07:07:44;52.63;;;31.83;;
18407;SDS011;9330;52.210;21.174;2023-03-01T07:10:11;53.83;;;31.55;;
18407;SDS011;9330;52.210;21.174;2023-03-01T07:12:40;54.63;;;32.05;;
18407;SDS011;9330;52.210;21.174;2023-03-01T07:15:08;51.08;;;30.30;;
18407;SDS011;9330;52.210;21.174;2023-03-01T07:17:35;49.58;;;31.00;;
18407;SDS011;9330;52.210;21.174;2023-03-01T07:20:02;51.60;;;30.90;;
18407;SDS011;9330;52.210;21.174;2023-03-01T07:22:29;54.50;;;31.92;;
18407;SDS011;9330;52.210;21.174;2023-03-01T07:24:57;49.00;;;30.33;;
18407;SDS011;9330;52.210;21.174;2023-03-01T07:27:23;55.67;;;30.30;;
18407;SDS011;9330;52.210;21.174;2023-03-01T07:29:52;47.60;;;29.35;;
18407;SDS011;9330;52.210;21.174;2023-03-01T07:32:18;48.80;;;29.42;;
18407;SDS011;9330;52.210;21.174;2023-03-01T07:34:45;47.65;;;29.10;;
18407;SDS011;9330;52.210;21.174;2023-03-01T07:37:12;52.70;;;29.77;;
18407;SDS011;9330;52.210;21.174;2023-03-01T07:39:39;48.78;;;27.15;;
18407;SDS011;9330;52.210;21.174;2023-03-01T07:42:07;46.03;;;26.90;;
18407;SDS011;9330;52.210;21.174;2023-03-01T07:44:34;51.40;;;29.30;;
18407;SDS011;9330;52.210;21.174;2023-03-01T07:47:02;41.95;;;26.67;;
18407;SDS011;9330;52.210;21.174;2023-03-01T07:49:29;43.85;;;25.38;;
18407;SDS011;9330;52.210;21.174;2023-03-01T07:51:56;43.42;;;26.40;;
18407;SDS011;9330;52.210;21.174;2023-03-01T07:54:23;42.70;;;25.90;;
18407;SDS011;9330;52.210;21.174;2023-03-01T07:56:51;37.55;;;24.13;;
18407;SDS011;9330;52.210;21.174;2023-03-01T07:59:19;47.33;;;25.27;;
18407;SDS011;9330;52.210;21.174;2023-03-01T08:01:48;42.67;;;24.10;;
18407;SDS011;9330;52.210;21.174;2023-03-01T08:04:16;38.08;;;23.08;;
18407;SDS011;9330;52.210;21.174;2023-03-01T08:06:43;38.05;;;22.95;;
18407;SDS011;9330;52.210;21.174;2023-03-01T08:09:10;36.03;;;23.63;;
18407;SDS011;9330;52.210;21.174;2023-03-01T08:11:37;40.20;;;22.50;;
18407;SDS011;9330;52.210;21.174;2023-03-01T08:14:04;33.08;;;20.92;;
18407;SDS011;9330;52.210;21.174;2023-03-01T08:16:33;34.15;;;19.70;;
18407;SDS011;9330;52.210;21.174;2023-03-01T08:19:03;29.85;;;18.33;;
18407;SDS011;9330;52.210;21.174;2023-03-01T08:21:32;27.90;;;16.95;;
18407;SDS011;9330;52.210;21.174;2023-03-01T08:23:59;26.10;;;15.45;;
18407;SDS011;9330;52.210;21.174;2023-03-01T08:26:26;26.70;;;16.63;;
18407;SDS011;9330;52.210;21.174;2023-03-01T08:28:53;27.55;;;16.38;;
18407;SDS011;9330;52.210;21.174;2023-03-01T08:31:21;27.38;;;16.25;;
18407;SDS011;9330;52.210;21.174;2023-03-01T08:33:50;23.30;;;15.95;;
18407;SDS011;9330;52.210;21.174;2023-03-01T08:36:20;26.30;;;16.38;;
18407;SDS011;9330;52.210;21.174;2023-03-01T08:38:49;22.90;;;15.73;;
18407;SDS011;9330;52.210;21.174;2023-03-01T08:41:16;24.85;;;15.98;;
18407;SDS011;9330;52.210;21.174;2023-03-01T08:43:42;27.90;;;15.90;;
18407;SDS011;9330;52.210;21.174;2023-03-01T08:46:09;25.13;;;15.63;;
18407;SDS011;9330;52.210;21.174;2023-03-01T08:48:36;27.38;;;17.73;;
18407;SDS011;9330;52.210;21.174;2023-03-01T08:51:07;25.60;;;16.90;;
18407;SDS011;9330;52.210;21.174;2023-03-01T08:53:34;28.42;;;18.17;;
18407;SDS011;9330;52.210;21.174;2023-03-01T08:56:03;27.55;;;17.92;;
18407;SDS011;9330;52.210;21.174;2023-03-01T08:58:30;24.63;;;17.13;;
18407;SDS011;9330;52.210;21.174;2023-03-01T09:00:58;25.95;;;17.33;;
18407;SDS011;9330;52.210;21.174;2023-03-01T09:03:25;27.63;;;17.77;;
18407;SDS011;9330;52.210;21.174;2023-03-01T09:05:52;25.63;;;17.40;;
18407;SDS011;9330;52.210;21.174;2023-03-01T09:08:25;27.67;;;15.85;;
18407;SDS011;9330;52.210;21.174;2023-03-01T09:10:52;22.55;;;15.55;;
18407;SDS011;9330;52.210;21.174;2023-03-01T09:13:20;27.42;;;16.45;;
18407;SDS011;9330;52.210;21.174;2023-03-01T09:15:48;24.52;;;16.05;;
18407;SDS011;9330;52.210;21.174;2023-03-01T09:18:15;24.52;;;15.75;;
18407;SDS011;9330;52.210;21.174;2023-03-01T09:20:42;25.67;;;15.93;;
18407;SDS011;9330;52.210;21.174;2023-03-01T09:23:09;27.08;;;16.50;;
18407;SDS011;9330;52.210;21.174;2023-03-01T09:25:36;23.30;;;15.85;;
18407;SDS011;9330;52.210;21.174;2023-03-01T09:28:02;28.13;;;17.10;;
18407;SDS011;9330;52.210;21.174;2023-03-01T09:30:31;26.88;;;18.42;;
18407;SDS011;9330;52.210;21.174;2023-03-01T09:32:58;22.40;;;15.73;;
18407;SDS011;9330;52.210;21.174;2023-03-01T09:35:24;25.25;;;17.08;;
18407;SDS011;9330;52.210;21.174;2023-03-01T09:37:51;28.73;;;17.75;;
18407;SDS011;9330;52.210;21.174;2023-03-01T09:40:19;23.25;;;16.08;;
18407;SDS011;9330;52.210;21.174;2023-03-01T09:42:50;24.52;;;15.48;;
18407;SDS011;9330;52.210;21.174;2023-03-01T09:45:24;24.02;;;15.60;;
18407;SDS011;9330;52.210;21.174;2023-03-01T09:47:56;23.25;;;16.08;;
18407;SDS011;9330;52.210;21.174;2023-03-01T09:50:31;24.30;;;15.48;;
18407;SDS011;9330;52.210;21.174;2023-03-01T09:53:02;22.15;;;14.65;;
18407;SDS011;9330;52.210;21.174;2023-03-01T09:55:32;22.05;;;13.85;;
18407;SDS011;9330;52.210;21.174;2023-03-01T09:58:06;21.88;;;13.80;;
18407;SDS011;9330;52.210;21.174;2023-03-01T10:00:51;25.30;;;14.45;;
18407;SDS011;9330;52.210;21.174;2023-03-01T10:03:22;22.25;;;14.95;;
18407;SDS011;9330;52.210;21.174;2023-03-01T10:05:56;24.00;;;16.00;;
18407;SDS011;9330;52.210;21.174;2023-03-01T10:08:31;25.13;;;14.55;;
18407;SDS011;9330;52.210;21.174;2023-03-01T10:11:04;22.45;;;14.85;;
18407;SDS011;9330;52.210;21.174;2023-03-01T10:13:42;25.90;;;15.73;;
18407;SDS011;9330;52.210;21.174;2023-03-01T10:16:15;22.30;;;14.05;;
18407;SDS011;9330;52.210;21.174;2023-03-01T10:18:47;25.70;;;16.02;;
18407;SDS011;9330;52.210;21.174;2023-03-01T10:21:20;29.63;;;17.50;;
18407;SDS011;9330;52.210;21.174;2023-03-01T10:23:49;30.25;;;18.67;;
18407;SDS011;9330;52.210;21.174;2023-03-01T10:26:23;28.92;;;18.02;;
18407;SDS011;9330;52.210;21.174;2023-03-01T10:29:04;23.30;;;15.77;;
18407;SDS011;9330;52.210;21.174;2023-03-01T10:31:36;28.05;;;17.65;;
18407;SDS011;9330;52.210;21.174;2023-03-01T10:36:41;26.83;;;17.33;;
18407;SDS011;9330;52.210;21.174;2023-03-01T10:39:13;23.25;;;15.68;;
18407;SDS011;9330;52.210;21.174;2023-03-01T10:41:52;25.73;;;16.65;;
18407;SDS011;9330;52.210;21.174;2023-03-01T10:47:18;25.33;;;17.10;;
18407;SDS011;9330;52.210;21.174;2023-03-01T10:49:52;25.65;;;16.92;;
18407;SDS011;9330;52.210;21.174;2023-03-01T10:52:23;24.05;;;16.30;;
18407;SDS011;9330;52.210;21.174;2023-03-01T10:54:52;25.83;;;16.13;;
18407;SDS011;9330;52.210;21.174;2023-03-01T10:57:27;23.38;;;16.30;;
18407;SDS011;9330;52.210;21.174;2023-03-01T11:00:14;23.77;;;15.65;;
18407;SDS011;9330;52.210;21.174;2023-03-01T11:02:45;21.58;;;13.93;;
18407;SDS011;9330;52.210;21.174;2023-03-01T11:05:18;24.25;;;15.32;;
18407;SDS011;9330;52.210;21.174;2023-03-01T11:07:49;27.00;;;16.05;;
18407;SDS011;9330;52.210;21.174;2023-03-01T11:10:19;21.25;;;14.13;;
18407;SDS011;9330;52.210;21.174;2023-03-01T11:12:48;20.55;;;14.32;;
18407;SDS011;9330;52.210;21.174;2023-03-01T11:15:20;22.05;;;14.25;;
18407;SDS011;9330;52.210;21.174;2023-03-01T11:17:49;19.15;;;12.82;;
18407;SDS011;9330;52.210;21.174;2023-03-01T11:20:20;22.27;;;14.13;;
18407;SDS011;9330;52.210;21.174;2023-03-01T11:22:52;23.42;;;16.23;;
18407;SDS011;9330;52.210;21.174;2023-03-01T11:25:21;19.80;;;13.98;;
18407;SDS011;9330;52.210;21.174;2023-03-01T11:27:51;19.80;;;13.30;;
18407;SDS011;9330;52.210;21.174;2023-03-01T11:30:20;19.45;;;12.75;;
18407;SDS011;9330;52.210;21.174;2023-03-01T11:32:55;19.20;;;12.13;;
18407;SDS011;9330;52.210;21.174;2023-03-01T11:35:30;16.90;;;12.57;;
18407;SDS011;9330;52.210;21.174;2023-03-01T11:38:04;18.40;;;11.88;;
18407;SDS011;9330;52.210;21.174;2023-03-01T11:40:43;18.52;;;11.95;;
18407;SDS011;9330;52.210;21.174;2023-03-01T11:43:15;16.00;;;11.43;;
18407;SDS011;9330;52.210;21.174;2023-03-01T11:48:48;16.40;;;11.50;;
18407;SDS011;9330;52.210;21.174;2023-03-01T11:51:36;16.05;;;12.23;;
18407;SDS011;9330;52.210;21.174;2023-03-01T11:54:17;19.50;;;11.93;;
18407;SDS011;9330;52.210;21.174;2023-03-01T11:56:55;19.25;;;12.52;;
18407;SDS011;9330;52.210;21.174;2023-03-01T11:59:40;18.77;;;11.82;;
18407;SDS011;9330;52.210;21.174;2023-03-01T12:05:14;17.77;;;11.75;;
18407;SDS011;9330;52.210;21.174;2023-03-01T12:07:55;20.33;;;13.20;;
18407;SDS011;9330;52.210;21.174;2023-03-01T12:10:28;19.00;;;13.43;;
18407;SDS011;9330;52.210;21.174;2023-03-01T12:13:06;17.48;;;12.20;;
18407;SDS011;9330;52.210;21.174;2023-03-01T12:16:00;17.02;;;11.90;;
18407;SDS011;9330;52.210;21.174;2023-03-01T12:18:39;15.25;;;11.25;;
18407;SDS011;9330;52.210;21.174;2023-03-01T12:21:18;20.08;;;12.38;;
18407;SDS011;9330;52.210;21.174;2023-03-01T12:27:07;16.90;;;11.80;;
18407;SDS011;9330;52.210;21.174;2023-03-01T12:29:53;15.82;;;10.70;;
18407;SDS011;9330;52.210;21.174;2023-03-01T12:32:34;18.05;;;10.98;;
18407;SDS011;9330;52.210;21.174;2023-03-01T12:35:19;15.90;;;10.82;;
18407;SDS011;9330;52.210;21.174;2023-03-01T12:38:04;15.98;;;11.20;;
18407;SDS011;9330;52.210;21.174;2023-03-01T12:40:49;15.75;;;10.95;;
18407;SDS011;9330;52.210;21.174;2023-03-01T12:43:41;15.77;;;10.82;;
18407;SDS011;9330;52.210;21.174;2023-03-01T12:46:25;15.82;;;10.80;;
18407;SDS011;9330;52.210;21.174;2023-03-01T12:49:02;14.20;;;9.77;;
18407;SDS011;9330;52.210;21.174;2023-03-01T12:51:34;13.80;;;10.07;;
18407;SDS011;9330;52.210;21.174;2023-03-01T12:54:05;14.60;;;10.35;;
18407;SDS011;9330;52.210;21.174;2023-03-01T12:56:41;14.00;;;10.15;;
18407;SDS011;9330;52.210;21.174;2023-03-01T12:59:17;13.25;;;9.23;;
18407;SDS011;9330;52.210;21.174;2023-03-01T13:01:51;12.65;;;9.13;;
18407;SDS011;9330;52.210;21.174;2023-03-01T13:04:35;14.80;;;9.90;;
18407;SDS011;9330;52.210;21.174;2023-03-01T13:07:21;15.30;;;10.02;;
18407;SDS011;9330;52.210;21.174;2023-03-01T13:09:55;11.82;;;8.80;;
18407;SDS011;9330;52.210;21.174;2023-03-01T13:15:37;11.07;;;8.70;;
18407;SDS011;9330;52.210;21.174;2023-03-01T13:20:55;11.77;;;8.38;;
18407;SDS011;9330;52.210;21.174;2023-03-01T13:23:24;13.23;;;8.00;;
18407;SDS011;9330;52.210;21.174;2023-03-01T13:26:00;11.32;;;7.05;;
18407;SDS011;9330;52.210;21.174;2023-03-01T13:28:41;11.75;;;8.23;;
18407;SDS011;9330;52.210;21.174;2023-03-01T13:37:18;12.73;;;8.00;;
18407;SDS011;9330;52.210;21.174;2023-03-01T13:39:47;11.43;;;8.30;;
18407;SDS011;9330;52.210;21.174;2023-03-01T13:45:36;13.50;;;8.65;;
18407;SDS011;9330;52.210;21.174;2023-03-01T13:48:08;13.13;;;8.50;;
18407;SDS011;9330;52.210;21.174;2023-03-01T13:50:39;15.45;;;8.55;;
18407;SDS011;9330;52.210;21.174;2023-03-01T13:53:14;12.73;;;8.95;;
18407;SDS011;9330;52.210;21.174;2023-03-01T13:55:44;16.65;;;9.60;;
18407;SDS011;9330;52.210;21.174;2023-03-01T13:58:15;15.32;;;10.07;;
18407;SDS011;9330;52.210;21.174;2023-03-01T14:00:47;15.50;;;10.15;;
18407;SDS011;9330;52.210;21.174;2023-03-01T14:03:14;14.35;;;9.75;;
18407;SDS011;9330;52.210;21.174;2023-03-01T14:05:44;17.02;;;10.85;;
18407;SDS011;9330;52.210;21.174;2023-03-01T14:08:27;13.73;;;10.32;;
18407;SDS011;9330;52.210;21.174;2023-03-01T14:11:13;16.00;;;10.93;;
18407;SDS011;9330;52.210;21.174;2023-03-01T14:20:00;16.58;;;11.13;;
18407;SDS011;9330;52.210;21.174;2023-03-01T14:22:35;15.82;;;9.90;;
18407;SDS011;9330;52.210;21.174;2023-03-01T14:25:03;15.65;;;10.82;;
18407;SDS011;9330;52.210;21.174;2023-03-01T14:27:33;17.33;;;11.25;;
18407;SDS011;9330;52.210;21.174;2023-03-01T14:30:10;15.07;;;10.90;;
18407;SDS011;9330;52.210;21.174;2023-03-01T14:32:41;16.42;;;10.95;;
18407;SDS011;9330;52.210;21.174;2023-03-01T14:35:18;15.20;;;11.38;;
18407;SDS011;9330;52.210;21.174;2023-03-01T14:37:46;15.30;;;10.30;;
18407;SDS011;9330;52.210;21.174;2023-03-01T14:40:20;14.18;;;10.38;;
18407;SDS011;9330;52.210;21.174;2023-03-01T14:42:49;15.38;;;10.75;;
18407;SDS011;9330;52.210;21.174;2023-03-01T14:45:17;14.63;;;10.68;;
18407;SDS011;9330;52.210;21.174;2023-03-01T14:47:46;15.02;;;10.23;;
18407;SDS011;9330;52.210;21.174;2023-03-01T14:50:19;13.48;;;9.80;;
18407;SDS011;9330;52.210;21.174;2023-03-01T14:52:53;14.07;;;9.68;;
18407;SDS011;9330;52.210;21.174;2023-03-01T14:55:25;15.88;;;9.75;;
18407;SDS011;9330;52.210;21.174;2023-03-01T14:57:55;13.73;;;10.10;;
18407;SDS011;9330;52.210;21.174;2023-03-01T15:00:24;15.18;;;9.77;;
18407;SDS011;9330;52.210;21.174;2023-03-01T15:02:55;15.02;;;10.13;;
18407;SDS011;9330;52.210;21.174;2023-03-01T15:05:25;15.05;;;10.57;;
18407;SDS011;9330;52.210;21.174;2023-03-01T15:07:55;17.63;;;11.13;;
18407;SDS011;9330;52.210;21.174;2023-03-01T15:10:24;19.08;;;11.23;;
18407;SDS011;9330;52.210;21.174;2023-03-01T15:12:53;16.48;;;10.43;;
18407;SDS011;9330;52.210;21.174;2023-03-01T15:15:30;15.93;;;11.75;;
18407;SDS011;9330;52.210;21.174;2023-03-01T15:18:02;16.13;;;10.93;;
18407;SDS011;9330;52.210;21.174;2023-03-01T15:20:31;15.98;;;10.57;;